Time;durP1;ratioP1;P1;durP2;ratioP2;P2;SDS_P1;SDS_P2;PMS_P1;PMS_P2;Temp;Humidity;BMP_temperature;BMP_pressure;BME280_temperature;BME280_humidity;BME280_pressure;Samples;Min_cycle;Max_cycle;Signal;HPM_P1;HPM_P2
2021/10/06 00:02:00;;;;;;;0.93;0.60;;;17.50;84.40;;;;;;5094620;28;20047;-68
2021/10/06 00:04:26;;;;;;;0.77;0.70;;;17.40;84.30;;;;;;5095154;28;20040;-75
2021/10/06 00:06:51;;;;;;;1.25;0.88;;;17.50;84.40;;;;;;5093583;28;20120;-65
2021/10/06 00:09:17;;;;;;;0.50;0.50;;;17.40;84.30;;;;;;5094539;28;20053;-66
2021/10/06 00:11:43;;;;;;;0.45;0.43;;;17.40;84.30;;;;;;5095069;28;20047;-60
2021/10/06 00:14:10;;;;;;;1.23;0.88;;;17.40;85.00;;;;;;5095020;28;20065;-67
2021/10/06 00:16:37;;;;;;;1.52;0.60;;;17.40;84.40;;;;;;5093593;28;20052;-64
2021/10/06 00:19:03;;;;;;;1.20;0.70;;;17.50;84.40;;;;;;5094790;28;20081;-73
2021/10/06 00:21:29;;;;;;;1.05;0.80;;;17.40;84.30;;;;;;5094681;28;20032;-65
2021/10/06 00:23:55;;;;;;;0.73;0.70;;;17.40;84.30;;;;;;5094524;28;20491;-71
2021/10/06 00:26:21;;;;;;;0.65;0.50;;;17.40;84.30;;;;;;5094796;28;20050;-72
2021/10/06 00:28:47;;;;;;;1.10;0.75;;;17.40;84.30;;;;;;5094619;28;20044;-75
2021/10/06 00:31:13;;;;;;;0.60;0.60;;;17.40;84.30;;;;;;5094436;28;20048;-75
2021/10/06 00:33:39;;;;;;;1.23;0.60;;;17.40;84.40;;;;;;5094446;28;20200;-75
2021/10/06 00:36:04;;;;;;;1.17;0.60;;;17.40;84.30;;;;;;5094307;28;20123;-75
2021/10/06 00:38:30;;;;;;;1.23;0.80;;;17.50;84.40;;;;;;5094522;28;20071;-76
2021/10/06 00:40:56;;;;;;;0.60;0.60;;;17.40;84.40;;;;;;5093073;28;20076;-75
2021/10/06 00:43:23;;;;;;;0.52;0.52;;;17.40;84.40;;;;;;5094733;28;20036;-75
2021/10/06 00:45:49;;;;;;;0.50;0.50;;;17.40;84.40;;;;;;5094810;28;20061;-75
2021/10/06 00:48:15;;;;;;;0.93;0.70;;;17.40;84.40;;;;;;5094174;28;20164;-73
2021/10/06 00:50:42;;;;;;;0.70;0.70;;;17.40;84.30;;;;;;5094013;28;20040;-74
2021/10/06 00:53:08;;;;;;;0.60;0.60;;;17.40;84.30;;;;;;5094101;28;20048;-74
2021/10/06 00:55:36;;;;;;;0.85;0.60;;;17.40;84.40;;;;;;5093882;28;20055;-72
2021/10/06 00:58:02;;;;;;;0.70;0.70;;;17.40;84.40;;;;;;5094181;28;20044;-70
2021/10/06 01:00:28;;;;;;;0.57;0.57;;;17.40;84.40;;;;;;5094258;28;20066;-73
2021/10/06 01:02:53;;;;;;;0.63;0.60;;;17.40;84.40;;;;;;5093796;28;20042;-65
2021/10/06 01:05:19;;;;;;;0.88;0.75;;;17.40;84.40;;;;;;5093849;28;20042;-74
2021/10/06 01:07:45;;;;;;;1.08;0.63;;;17.40;84.40;;;;;;5093612;28;20418;-74
2021/10/06 01:10:12;;;;;;;0.98;0.50;;;17.40;84.40;;;;;;5093687;28;20043;-61
2021/10/06 01:12:39;;;;;;;0.63;0.63;;;17.40;84.40;;;;;;5093676;28;20122;-62
2021/10/06 01:15:08;;;;;;;1.08;0.70;;;17.40;84.40;;;;;;5093311;28;20080;-75
2021/10/06 01:17:34;;;;;;;0.70;0.60;;;17.40;84.40;;;;;;5093512;28;20059;-61
2021/10/06 01:20:01;;;;;;;0.93;0.75;;;17.40;84.40;;;;;;5093541;28;20069;-72
2021/10/06 01:22:26;;;;;;;0.45;0.45;;;17.40;84.40;;;;;;5092865;28;20047;-72
2021/10/06 01:24:52;;;;;;;0.60;0.50;;;17.40;84.40;;;;;;5093044;28;20056;-74
2021/10/06 01:27:18;;;;;;;0.40;0.40;;;17.40;84.40;;;;;;5093651;28;20040;-71
2021/10/06 01:29:44;;;;;;;0.85;0.65;;;17.40;84.40;;;;;;5093259;28;20059;-70
2021/10/06 01:32:14;;;;;;;0.98;0.70;;;17.40;84.40;;;;;;5093575;28;20036;-72
2021/10/06 01:34:41;;;;;;;0.68;0.65;;;17.40;84.40;;;;;;5092818;28;20071;-65
2021/10/06 01:37:07;;;;;;;0.55;0.55;;;17.50;84.40;;;;;;5092719;28;20119;-59
2021/10/06 01:39:33;;;;;;;0.60;0.60;;;17.40;84.40;;;;;;5093261;28;20040;-69
2021/10/06 01:41:59;;;;;;;0.70;0.70;;;17.40;84.40;;;;;;5093218;28;20043;-59
2021/10/06 01:44:25;;;;;;;0.63;0.55;;;17.40;84.50;;;;;;5093332;28;20050;-67
2021/10/06 01:46:51;;;;;;;0.55;0.55;;;17.40;84.50;;;;;;5091454;28;20199;-68
2021/10/06 01:49:17;;;;;;;0.50;0.50;;;17.40;84.40;;;;;;5093027;28;20043;-57
2021/10/06 01:51:43;;;;;;;0.80;0.60;;;17.40;84.40;;;;;;5092734;28;20559;-64
2021/10/06 01:54:09;;;;;;;0.98;0.70;;;17.40;84.40;;;;;;5092235;28;20093;-67
2021/10/06 01:56:36;;;;;;;0.70;0.70;;;17.40;84.40;;;;;;5092813;28;20040;-69
2021/10/06 01:59:03;;;;;;;0.60;0.60;;;17.40;84.40;;;;;;5092871;28;20107;-61
2021/10/06 02:01:29;;;;;;;0.73;0.52;;;17.40;84.40;;;;;;5093036;28;20079;-72
2021/10/06 02:03:55;;;;;;;0.52;0.52;;;17.40;84.40;;;;;;5092932;28;20089;-72
2021/10/06 02:06:21;;;;;;;0.50;0.50;;;17.40;84.30;;;;;;5092442;28;20048;-73
2021/10/06 02:08:47;;;;;;;1.95;0.90;;;17.40;84.40;;;;;;5090752;28;20052;-68
2021/10/06 02:11:13;;;;;;;0.85;0.60;;;17.40;84.30;;;;;;5092426;28;20483;-61
2021/10/06 02:13:39;;;;;;;0.63;0.50;;;17.40;84.40;;;;;;5092794;28;20130;-61
2021/10/06 02:16:05;;;;;;;0.80;0.50;;;17.40;84.40;;;;;;5092743;28;20086;-61
2021/10/06 02:18:30;;;;;;;1.17;0.60;;;17.40;84.40;;;;;;5091808;28;20131;-58
2021/10/06 02:20:57;;;;;;;1.25;0.77;;;17.40;84.40;;;;;;5092583;28;20500;-70
2021/10/06 02:23:22;;;;;;;0.50;0.40;;;17.40;84.40;;;;;;5090978;28;20052;-64
2021/10/06 02:25:48;;;;;;;0.90;0.65;;;17.40;84.40;;;;;;5092421;28;20051;-70
2021/10/06 02:28:14;;;;;;;0.68;0.60;;;17.40;84.40;;;;;;5092708;28;20036;-70
2021/10/06 02:30:40;;;;;;;0.70;0.60;;;17.40;84.40;;;;;;5092558;28;20047;-65
2021/10/06 02:33:06;;;;;;;0.57;0.57;;;17.40;84.40;;;;;;5092358;28;20055;-68
2021/10/06 02:35:32;;;;;;;0.70;0.50;;;17.40;84.40;;;;;;5092229;28;20040;-61
2021/10/06 02:37:58;;;;;;;0.88;0.77;;;17.40;84.40;;;;;;5092461;28;20040;-57
2021/10/06 02:40:23;;;;;;;0.95;0.70;;;17.40;84.40;;;;;;5091570;28;20046;-67
2021/10/06 02:42:52;;;;;;;0.50;0.50;;;17.40;84.40;;;;;;5092440;28;20040;-68
2021/10/06 02:45:19;;;;;;;0.95;0.60;;;17.40;84.30;;;;;;5091210;28;20051;-65
2021/10/06 02:47:46;;;;;;;0.50;0.50;;;17.40;84.40;;;;;;5092340;28;20036;-69
2021/10/06 02:50:15;;;;;;;0.57;0.50;;;17.40;84.40;;;;;;5091661;28;20044;-67
2021/10/06 02:52:41;;;;;;;0.80;0.70;;;17.30;85.00;;;;;;5092657;28;20063;-75
2021/10/06 02:55:07;;;;;;;1.00;0.65;;;17.40;84.40;;;;;;5092782;28;20048;-73
2021/10/06 02:57:34;;;;;;;1.27;0.50;;;17.40;84.40;;;;;;5092200;28;20047;-70
2021/10/06 03:00:00;;;;;;;1.95;0.68;;;17.40;84.40;;;;;;5091901;28;20047;-65
2021/10/06 03:02:26;;;;;;;0.68;0.68;;;17.40;84.40;;;;;;5092315;28;20408;-70
2021/10/06 03:04:51;;;;;;;0.57;0.57;;;17.50;84.50;;;;;;5096111;28;20512;-75
2021/10/06 03:07:18;;;;;;;0.50;0.50;;;17.40;84.40;;;;;;5096448;28;20038;-75
2021/10/06 03:09:43;;;;;;;0.70;0.65;;;17.40;84.40;;;;;;5096245;28;20053;-75
2021/10/06 03:12:11;;;;;;;0.70;0.60;;;17.40;84.40;;;;;;5095531;28;20165;-75
2021/10/06 03:14:37;;;;;;;0.57;0.43;;;17.30;84.30;;;;;;5096023;28;20059;-75
2021/10/06 03:17:03;;;;;;;0.52;0.52;;;17.40;84.40;;;;;;5096282;28;20128;-75
2021/10/06 03:19:28;;;;;;;1.15;0.70;;;17.30;84.30;;;;;;5095902;28;20127;-75
2021/10/06 03:21:54;;;;;;;0.52;0.47;;;17.30;84.30;;;;;;5095357;28;20094;-71
2021/10/06 03:24:20;;;;;;;0.85;0.60;;;17.50;84.40;;;;;;5095616;28;20062;-75
2021/10/06 03:26:46;;;;;;;0.80;0.65;;;17.40;84.40;;;;;;5096076;28;20044;-75
2021/10/06 03:29:11;;;;;;;0.98;0.63;;;17.40;84.40;;;;;;5095259;28;20044;-75
2021/10/06 03:31:37;;;;;;;1.05;0.52;;;17.30;84.30;;;;;;5095371;28;20040;-54
2021/10/06 03:34:03;;;;;;;0.50;0.50;;;17.40;84.40;;;;;;5094407;28;20060;-74
2021/10/06 03:36:29;;;;;;;0.68;0.45;;;17.40;84.40;;;;;;5095721;28;20066;-75
2021/10/06 03:38:55;;;;;;;1.25;0.70;;;17.30;84.50;;;;;;5095522;28;20434;-75
2021/10/06 03:41:20;;;;;;;0.50;0.50;;;17.40;84.40;;;;;;5095516;28;20048;-69
2021/10/06 03:43:46;;;;;;;1.40;0.80;;;17.30;84.40;;;;;;5094558;28;20032;-75
2021/10/06 03:46:12;;;;;;;0.80;0.70;;;17.30;84.40;;;;;;5095394;28;20052;-75
2021/10/06 03:48:38;;;;;;;0.60;0.60;;;17.30;84.40;;;;;;5095340;28;20032;-75
2021/10/06 03:51:04;;;;;;;0.55;0.55;;;17.30;84.40;;;;;;5095257;28;20040;-66
2021/10/06 03:53:29;;;;;;;0.98;0.57;;;17.30;84.40;;;;;;5095142;28;20143;-75
2021/10/06 03:55:55;;;;;;;0.50;0.50;;;17.30;84.40;;;;;;5095322;28;20067;-72
2021/10/06 03:58:21;;;;;;;0.50;0.50;;;17.30;84.40;;;;;;5095153;28;20076;-72
2021/10/06 04:00:47;;;;;;;0.75;0.60;;;17.40;84.40;;;;;;5094691;28;20425;-75
2021/10/06 04:03:14;;;;;;;0.50;0.50;;;17.30;84.30;;;;;;5095068;28;20043;-75
2021/10/06 04:05:40;;;;;;;0.63;0.63;;;17.30;84.40;;;;;;5094600;28;20059;-75
2021/10/06 04:08:06;;;;;;;1.00;0.57;;;17.30;84.40;;;;;;5094979;28;20050;-75
2021/10/06 04:10:33;;;;;;;0.73;0.60;;;17.30;84.40;;;;;;5095112;28;20040;-75
2021/10/06 04:12:59;;;;;;;0.50;0.50;;;17.40;84.50;;;;;;5094953;28;20122;-75
2021/10/06 04:15:24;;;;;;;1.13;0.75;;;17.30;84.40;;;;;;5093436;28;20206;-69
2021/10/06 04:17:50;;;;;;;0.85;0.60;;;17.30;84.40;;;;;;5094749;28;20337;-70
2021/10/06 04:20:15;;;;;;;0.60;0.60;;;17.30;84.40;;;;;;5095011;28;20153;-70
2021/10/06 04:22:41;;;;;;;0.95;0.60;;;17.30;84.40;;;;;;5094615;28;20494;-75
2021/10/06 04:25:09;;;;;;;0.80;0.60;;;17.30;84.40;;;;;;5093111;28;20490;-75
2021/10/06 04:27:35;;;;;;;0.50;0.50;;;17.30;84.50;;;;;;5091807;28;20539;-74
2021/10/06 04:30:02;;;;;;;1.55;0.70;;;17.30;84.50;;;;;;5093425;28;20368;-75
2021/10/06 04:32:28;;;;;;;0.73;0.65;;;17.30;84.50;;;;;;5093057;28;20036;-75
2021/10/06 04:34:54;;;;;;;0.50;0.50;;;17.30;84.40;;;;;;5093893;28;20040;-75
2021/10/06 04:37:20;;;;;;;1.33;0.85;;;17.30;84.40;;;;;;5092217;28;20048;-70
2021/10/06 04:39:45;;;;;;;0.85;0.80;;;17.30;84.40;;;;;;5092954;28;20047;-71
2021/10/06 04:42:11;;;;;;;1.27;0.90;;;17.30;84.40;;;;;;5093184;28;20044;-70
2021/10/06 04:44:37;;;;;;;0.80;0.80;;;17.30;84.40;;;;;;5093623;28;20097;-74
2021/10/06 04:47:02;;;;;;;1.20;0.75;;;17.30;84.50;;;;;;5092806;28;20036;-72
2021/10/06 04:49:28;;;;;;;0.60;0.60;;;17.30;84.40;;;;;;5093022;28;20154;-69
2021/10/06 04:51:54;;;;;;;1.05;0.88;;;17.30;84.40;;;;;;5093215;28;20472;-74
2021/10/06 04:54:19;;;;;;;0.70;0.60;;;17.30;84.50;;;;;;5092865;28;20044;-69
2021/10/06 04:56:45;;;;;;;0.63;0.63;;;17.30;84.40;;;;;;5092937;28;20057;-72
2021/10/06 04:59:10;;;;;;;0.68;0.55;;;17.30;84.40;;;;;;5091737;28;20044;-67
2021/10/06 05:01:36;;;;;;;0.70;0.70;;;17.30;84.30;;;;;;5093360;28;20079;-70
2021/10/06 05:04:02;;;;;;;0.77;0.70;;;17.30;84.40;;;;;;5092969;28;20387;-72
2021/10/06 05:06:28;;;;;;;0.70;0.63;;;17.30;84.40;;;;;;5093631;28;20072;-67
2021/10/06 05:08:53;;;;;;;0.80;0.70;;;17.30;84.40;;;;;;5092348;28;20431;-73
2021/10/06 05:11:22;;;;;;;0.93;0.75;;;17.30;84.40;;;;;;5092409;28;20464;-75
2021/10/06 05:13:48;;;;;;;0.47;0.47;;;17.30;84.40;;;;;;5074717;28;20161;-67
2021/10/06 05:16:13;;;;;;;0.70;0.60;;;17.30;84.40;;;;;;5092104;28;20073;-63
2021/10/06 05:18:39;;;;;;;0.40;0.40;;;17.30;84.40;;;;;;5092470;28;20047;-71
2021/10/06 05:21:05;;;;;;;0.93;0.75;;;17.30;84.40;;;;;;5090908;28;20055;-61
2021/10/06 05:23:30;;;;;;;0.87;0.73;;;17.30;84.40;;;;;;5054909;28;1068836;-70
2021/10/06 05:25:56;;;;;;;0.93;0.60;;;17.30;84.40;;;;;;5093011;28;20158;-75
2021/10/06 05:28:22;;;;;;;0.75;0.60;;;17.30;84.40;;;;;;5093315;28;20044;-75
2021/10/06 05:30:47;;;;;;;0.60;0.50;;;17.30;84.40;;;;;;5093636;28;20406;-74
2021/10/06 05:33:13;;;;;;;0.88;0.73;;;17.30;84.40;;;;;;5092111;28;20122;-76
2021/10/06 05:35:40;;;;;;;0.60;0.60;;;17.30;84.40;;;;;;5092905;28;20105;-75
2021/10/06 05:38:06;;;;;;;1.48;0.70;;;17.30;84.50;;;;;;5092850;28;20059;-66
2021/10/06 05:40:32;;;;;;;0.60;0.50;;;17.20;84.40;;;;;;5091753;28;20051;-74
2021/10/06 05:42:58;;;;;;;0.63;0.50;;;17.30;84.40;;;;;;5093160;28;20073;-69
2021/10/06 05:45:24;;;;;;;0.85;0.65;;;17.30;84.40;;;;;;5092633;28;20126;-73
2021/10/06 05:47:49;;;;;;;0.65;0.50;;;17.30;84.30;;;;;;5090437;28;20108;-71
2021/10/06 05:50:15;;;;;;;1.27;0.60;;;17.30;84.40;;;;;;5092040;28;20499;-75
2021/10/06 05:52:41;;;;;;;0.73;0.60;;;17.30;84.30;;;;;;5092589;28;20044;-63
2021/10/06 05:55:07;;;;;;;0.50;0.50;;;17.30;84.40;;;;;;5092464;28;20036;-66
2021/10/06 05:57:33;;;;;;;0.80;0.68;;;17.30;84.40;;;;;;5091993;28;20127;-69
2021/10/06 05:59:59;;;;;;;0.45;0.40;;;17.30;84.40;;;;;;5091895;28;20052;-74
2021/10/06 06:02:25;;;;;;;0.70;0.50;;;17.30;84.30;;;;;;5091867;28;20468;-74
2021/10/06 06:04:50;;;;;;;0.40;0.40;;;17.30;84.30;;;;;;5091953;28;20048;-64
2021/10/06 06:07:16;;;;;;;1.10;0.68;;;17.30;84.40;;;;;;5092267;28;20039;-74
2021/10/06 06:09:41;;;;;;;0.85;0.60;;;17.30;84.40;;;;;;5092273;28;20040;-73
2021/10/06 06:12:09;;;;;;;0.50;0.50;;;17.30;84.40;;;;;;5074300;28;20135;-71
2021/10/06 06:14:38;;;;;;;0.40;0.40;;;17.30;84.30;;;;;;5092740;28;20754;-75
2021/10/06 06:17:03;;;;;;;0.70;0.60;;;17.30;84.40;;;;;;5092694;28;20046;-74
2021/10/06 06:19:29;;;;;;;0.47;0.47;;;17.30;84.30;;;;;;5092222;28;20040;-73
2021/10/06 06:21:55;;;;;;;1.55;0.50;;;17.30;84.40;;;;;;5092032;28;20071;-72
2021/10/06 06:24:20;;;;;;;0.50;0.50;;;17.30;84.40;;;;;;5090629;28;20453;-60
2021/10/06 06:26:46;;;;;;;0.70;0.55;;;17.30;84.40;;;;;;5092447;28;20051;-73
2021/10/06 06:29:12;;;;;;;0.47;0.47;;;17.30;84.40;;;;;;5091860;28;20044;-74
2021/10/06 06:31:37;;;;;;;0.47;0.45;;;17.30;84.40;;;;;;5092117;28;20062;-65
2021/10/06 06:34:03;;;;;;;0.68;0.38;;;17.30;84.40;;;;;;5092265;28;20353;-60
2021/10/06 06:36:28;;;;;;;0.73;0.65;;;17.30;84.30;;;;;;5092425;28;20100;-67
2021/10/06 06:38:54;;;;;;;0.70;0.50;;;17.30;84.40;;;;;;5092022;28;20057;-62
2021/10/06 06:41:20;;;;;;;0.60;0.60;;;17.30;84.40;;;;;;5092350;28;20043;-69
2021/10/06 06:43:45;;;;;;;0.60;0.60;;;17.30;84.30;;;;;;5091632;28;20086;-68
2021/10/06 06:46:11;;;;;;;0.60;0.60;;;17.30;84.40;;;;;;5092295;28;20040;-66
2021/10/06 06:48:37;;;;;;;0.60;0.60;;;17.30;84.40;;;;;;5092129;28;20043;-66
2021/10/06 06:51:03;;;;;;;2.92;1.90;;;17.30;84.40;;;;;;5090953;28;20083;-60
2021/10/06 06:53:29;;;;;;;10.00;2.47;;;17.20;81.30;;;;;;5092226;28;20076;-66
2021/10/06 06:55:56;;;;;;;8.95;2.50;;;17.10;80.00;;;;;;5091787;28;20129;-66
2021/10/06 06:58:24;;;;;;;5.88;2.20;;;17.00;80.10;;;;;;5089132;28;20456;-59
2021/10/06 07:00:50;;;;;;;7.22;2.80;;;16.90;80.20;;;;;;5091150;28;20036;-59
2021/10/06 07:03:16;;;;;;;9.95;2.75;;;16.90;80.60;;;;;;5089872;28;20043;-67
2021/10/06 07:05:42;;;;;;;9.55;2.75;;;16.90;80.90;;;;;;5091703;28;20046;-60
2021/10/06 07:08:08;;;;;;;6.93;2.08;;;16.90;81.10;;;;;;5088937;28;20033;-61
2021/10/06 07:10:34;;;;;;;12.45;2.60;;;17.00;81.40;;;;;;5091321;28;20085;-58
2021/10/06 07:13:00;;;;;;;6.03;2.10;;;16.90;81.50;;;;;;5091361;28;20051;-57
2021/10/06 07:15:26;;;;;;;4.10;2.05;;;17.00;81.60;;;;;;5090852;28;20484;-58
2021/10/06 07:17:51;;;;;;;5.68;2.33;;;17.00;82.50;;;;;;5091315;28;20456;-58
2021/10/06 07:20:17;;;;;;;6.75;2.15;;;17.00;82.00;;;;;;5091150;28;20040;-58
2021/10/06 07:22:48;;;;;;;4.65;1.75;;;17.00;82.20;;;;;;5091334;28;20392;-58
2021/10/06 07:25:16;;;;;;;4.90;2.38;;;17.00;82.00;;;;;;5090472;28;20056;-61
2021/10/06 07:27:41;;;;;;;4.40;1.60;;;17.00;80.50;;;;;;5091940;28;20063;-61
2021/10/06 07:30:08;;;;;;;7.80;1.95;;;17.00;80.40;;;;;;5091544;28;20048;-61
2021/10/06 07:32:34;;;;;;;5.15;2.13;;;17.00;81.00;;;;;;5091845;28;20077;-61
2021/10/06 07:34:59;;;;;;;4.45;1.90;;;17.00;81.60;;;;;;5091546;28;20127;-61
2021/10/06 07:37:25;;;;;;;3.60;1.48;;;17.00;82.00;;;;;;5091924;28;20281;-60
2021/10/06 07:39:51;;;;;;;3.25;1.65;;;17.00;82.20;;;;;;5089883;28;20189;-59
2021/10/06 07:42:16;;;;;;;4.10;1.77;;;17.00;82.50;;;;;;5091176;28;20056;-61
2021/10/06 07:44:45;;;;;;;3.20;1.50;;;17.00;82.60;;;;;;5091332;28;20048;-61
2021/10/06 07:47:12;;;;;;;3.65;1.75;;;17.00;82.80;;;;;;5071245;28;20056;-61
2021/10/06 07:49:37;;;;;;;4.47;1.70;;;17.10;83.00;;;;;;5073861;28;20044;-74
2021/10/06 07:52:04;;;;;;;4.80;1.73;;;17.10;83.20;;;;;;5078254;28;20123;-60
2021/10/06 07:54:29;;;;;;;5.18;2.15;;;17.00;81.60;;;;;;5094321;28;20063;-60
2021/10/06 07:56:55;;;;;;;4.68;1.85;;;17.00;81.40;;;;;;5090323;28;20392;-61
2021/10/06 07:59:21;;;;;;;4.13;1.58;;;17.00;81.50;;;;;;5094984;28;20040;-61
2021/10/06 08:01:47;;;;;;;2.65;1.60;;;17.00;81.50;;;;;;5095163;28;20039;-61
2021/10/06 08:04:12;;;;;;;1.73;1.33;;;17.00;81.50;;;;;;5095217;28;20113;-61
2021/10/06 08:06:38;;;;;;;2.50;1.50;;;17.00;81.60;;;;;;5094781;28;20036;-60
2021/10/06 08:09:08;;;;;;;3.28;1.52;;;17.00;81.70;;;;;;5094974;28;20036;-60
2021/10/06 08:11:34;;;;;;;3.22;1.55;;;17.00;81.90;;;;;;5094011;28;20115;-61
2021/10/06 08:14:01;;;;;;;2.13;1.40;;;17.00;82.00;;;;;;5094310;28;20051;-61
2021/10/06 08:16:27;;;;;;;2.47;1.20;;;17.00;82.10;;;;;;5094644;28;20032;-61
2021/10/06 08:18:53;;;;;;;1.25;1.15;;;17.00;82.00;;;;;;5093557;28;20047;-61
2021/10/06 08:21:19;;;;;;;1.80;1.38;;;17.00;82.20;;;;;;5094836;28;20051;-60
2021/10/06 08:23:45;;;;;;;1.90;1.20;;;17.00;82.20;;;;;;5094512;28;20396;-60
2021/10/06 08:26:10;;;;;;;2.53;1.40;;;17.00;82.40;;;;;;5093421;28;20044;-60
2021/10/06 08:28:36;;;;;;;3.05;1.20;;;17.00;82.50;;;;;;5094098;28;20150;-63
2021/10/06 08:31:03;;;;;;;3.45;1.83;;;17.00;81.20;;;;;;5092245;28;20036;-74
2021/10/06 08:33:29;;;;;;;2.05;1.20;;;16.90;81.00;;;;;;5085428;28;20046;-63
2021/10/06 08:35:55;;;;;;;2.17;1.20;;;17.10;81.80;;;;;;5094541;28;20040;-62
2021/10/06 08:38:21;;;;;;;2.72;1.40;;;17.00;82.00;;;;;;5094348;28;20036;-62
2021/10/06 08:40:47;;;;;;;1.30;1.10;;;17.00;82.20;;;;;;5093188;28;20096;-61
2021/10/06 08:43:12;;;;;;;1.10;1.00;;;17.00;82.50;;;;;;5094184;28;20085;-61
2021/10/06 08:45:39;;;;;;;2.40;1.30;;;17.00;82.70;;;;;;5094414;28;20465;-62
2021/10/06 08:48:07;;;;;;;2.38;1.20;;;17.00;82.80;;;;;;5094404;28;20067;-64
2021/10/06 08:50:34;;;;;;;1.80;1.10;;;17.00;82.90;;;;;;5094139;28;20098;-61
2021/10/06 08:53:00;;;;;;;1.30;1.00;;;17.00;83.00;;;;;;5094028;28;20040;-63
2021/10/06 08:55:29;;;;;;;1.95;1.20;;;17.10;83.10;;;;;;5092594;28;20051;-61
2021/10/06 08:58:00;;;;;;;1.88;0.90;;;17.00;83.10;;;;;;5094702;28;20149;-61
2021/10/06 09:00:27;;;;;;;1.70;1.17;;;17.00;83.10;;;;;;5092929;28;20036;-63
2021/10/06 09:02:53;;;;;;;2.28;1.08;;;17.10;83.30;;;;;;5092557;28;20055;-64
2021/10/06 09:05:23;;;;;;;1.75;1.23;;;17.10;83.40;;;;;;5094034;28;20052;-63
2021/10/06 09:07:59;;;;;;;2.00;1.13;;;17.10;83.30;;;;;;5094044;28;20036;-75
2021/10/06 09:10:26;;;;;;;1.38;0.98;;;17.10;83.40;;;;;;5094011;28;20166;-66
2021/10/06 09:13:04;;;;;;;0.90;0.85;;;17.10;83.40;;;;;;5088368;28;20096;-63
2021/10/06 09:15:50;;;;;;;1.50;0.88;;;17.00;83.40;;;;;;5085106;28;20051;-60
2021/10/06 09:18:21;;;;;;;2.47;1.00;;;17.10;83.40;;;;;;5093855;28;20071;-62
2021/10/06 09:20:48;;;;;;;1.38;1.00;;;17.10;83.50;;;;;;5093912;28;20131;-61
2021/10/06 09:23:22;;;;;;;0.65;0.65;;;17.10;83.50;;;;;;5092464;28;20449;-63
2021/10/06 09:25:59;;;;;;;0.80;0.80;;;17.10;83.60;;;;;;5093007;28;20044;-61
2021/10/06 09:28:38;;;;;;;1.55;0.90;;;17.10;83.50;;;;;;5093886;28;20513;-66
2021/10/06 09:31:10;;;;;;;1.55;1.08;;;17.10;83.60;;;;;;5093596;28;20044;-65
2021/10/06 09:33:49;;;;;;;1.25;0.90;;;17.10;83.60;;;;;;5093143;28;20079;-63
2021/10/06 09:36:16;;;;;;;1.35;0.90;;;17.10;83.70;;;;;;5093133;28;20040;-67
2021/10/06 09:38:47;;;;;;;1.17;0.80;;;17.10;83.60;;;;;;5092090;28;20096;-66
2021/10/06 09:41:52;;;;;;;1.50;1.05;;;17.10;83.70;;;;;;5093587;28;20433;-65
2021/10/06 09:44:23;;;;;;;2.10;1.50;;;17.10;83.60;;;;;;5050721;28;20143;-62
2021/10/06 09:46:51;;;;;;;1.65;1.30;;;17.10;82.30;;;;;;5050055;28;20330;-63
2021/10/06 09:49:21;;;;;;;1.30;1.20;;;17.10;81.40;;;;;;5049034;28;20056;-61
2021/10/06 09:51:47;;;;;;;2.30;1.00;;;17.00;81.40;;;;;;5050383;28;20045;-62
2021/10/06 09:54:13;;;;;;;1.45;1.13;;;17.00;81.80;;;;;;5050529;28;20100;-62
2021/10/06 09:56:45;;;;;;;1.05;0.93;;;17.10;82.00;;;;;;5050410;28;20053;-63
2021/10/06 09:59:15;;;;;;;1.85;1.00;;;17.10;82.10;;;;;;5049964;28;20047;-62
2021/10/06 10:01:42;;;;;;;1.05;1.00;;;17.00;82.20;;;;;;5050095;28;20100;-62
2021/10/06 10:04:09;;;;;;;2.75;1.05;;;17.00;82.30;;;;;;5050051;28;20053;-61
2021/10/06 10:06:36;;;;;;;2.38;1.25;;;17.00;82.40;;;;;;5055466;28;20037;-63
2021/10/06 10:09:03;;;;;;;1.27;0.98;;;17.10;82.60;;;;;;5062812;28;20068;-62
2021/10/06 10:11:30;;;;;;;1.88;1.00;;;17.10;82.90;;;;;;5066770;28;20048;-62
2021/10/06 10:13:56;;;;;;;1.25;1.00;;;17.10;83.00;;;;;;5051519;28;20048;-62
2021/10/06 10:16:22;;;;;;;1.27;1.00;;;17.00;83.10;;;;;;5105337;28;20048;-62
2021/10/06 10:18:48;;;;;;;1.35;1.15;;;17.10;83.30;;;;;;5072171;28;20040;-61
2021/10/06 10:21:18;;;;;;;1.50;1.15;;;17.10;83.40;;;;;;5092287;28;20032;-61
2021/10/06 10:23:44;;;;;;;1.83;0.90;;;17.10;83.60;;;;;;5092709;28;20085;-61
2021/10/06 10:26:23;;;;;;;1.42;1.10;;;17.10;83.70;;;;;;5092803;28;20121;-61
2021/10/06 10:28:49;;;;;;;1.27;1.10;;;17.00;83.80;;;;;;5092696;28;20055;-61
2021/10/06 10:31:18;;;;;;;1.00;1.00;;;17.10;84.10;;;;;;5092275;28;20040;-62
2021/10/06 10:33:49;;;;;;;2.08;1.00;;;17.00;84.20;;;;;;5092653;28;20556;-61
2021/10/06 10:36:34;;;;;;;1.88;1.00;;;17.10;84.40;;;;;;5092175;28;20063;-62
2021/10/06 10:39:05;;;;;;;1.00;0.90;;;17.10;84.40;;;;;;5092460;28;20048;-63
2021/10/06 10:41:46;;;;;;;0.88;0.88;;;17.10;84.50;;;;;;5090580;28;20036;-61
2021/10/06 10:44:12;;;;;;;1.33;0.80;;;17.10;84.50;;;;;;5092471;28;20396;-61
2021/10/06 10:47:04;;;;;;;2.72;1.35;;;17.00;84.60;;;;;;5092066;28;20032;-61
2021/10/06 10:49:45;;;;;;;1.80;1.00;;;17.10;84.60;;;;;;5091987;28;20487;-60
2021/10/06 10:52:12;;;;;;;1.17;1.00;;;17.10;84.70;;;;;;5091101;28;20119;-61
2021/10/06 10:54:47;;;;;;;0.82;0.80;;;17.10;84.80;;;;;;5092547;28;20036;-62
2021/10/06 10:57:28;;;;;;;1.05;0.93;;;17.10;84.80;;;;;;5088116;28;20054;-60
2021/10/06 10:59:57;;;;;;;0.90;0.90;;;17.10;84.70;;;;;;5088410;28;20056;-61
2021/10/06 11:02:22;;;;;;;1.05;0.95;;;17.10;84.90;;;;;;5087564;28;20042;-61
2021/10/06 11:04:59;;;;;;;1.02;0.85;;;17.10;84.90;;;;;;5088407;28;20052;-60
2021/10/06 11:07:26;;;;;;;0.90;0.90;;;17.10;84.80;;;;;;5087859;28;20044;-61
2021/10/06 11:09:54;;;;;;;0.73;0.73;;;17.10;84.90;;;;;;5088310;28;20127;-61
2021/10/06 11:12:20;;;;;;;0.60;0.60;;;17.10;84.90;;;;;;5086956;28;20079;-61
2021/10/06 11:14:48;;;;;;;1.02;0.80;;;17.10;85.60;;;;;;5087970;28;20075;-61
2021/10/06 11:17:19;;;;;;;0.95;0.75;;;17.10;84.90;;;;;;5088199;28;20419;-61
2021/10/06 11:19:50;;;;;;;1.85;0.80;;;17.10;84.90;;;;;;5088150;28;20125;-61
2021/10/06 11:22:30;;;;;;;1.30;0.80;;;17.10;84.90;;;;;;5088139;28;20052;-62
2021/10/06 11:25:07;;;;;;;0.75;0.75;;;17.10;84.80;;;;;;5089985;28;20072;-61
2021/10/06 11:27:46;;;;;;;1.48;0.55;;;17.10;84.80;;;;;;5092150;28;20503;-61
2021/10/06 11:30:13;;;;;;;0.82;0.82;;;17.10;84.90;;;;;;5090411;28;20044;-61
2021/10/06 11:32:53;;;;;;;1.20;0.70;;;17.10;84.90;;;;;;5089605;28;20048;-61
2021/10/06 11:35:19;;;;;;;1.55;0.88;;;17.10;84.80;;;;;;5091711;28;20380;-62
2021/10/06 11:37:45;;;;;;;0.77;0.68;;;17.10;84.80;;;;;;5091609;28;20764;-62
2021/10/06 11:40:13;;;;;;;0.80;0.80;;;17.10;84.90;;;;;;5091667;28;20146;-61
2021/10/06 11:42:40;;;;;;;0.70;0.60;;;17.10;84.80;;;;;;5091572;28;20063;-61
2021/10/06 11:45:16;;;;;;;0.77;0.75;;;17.10;84.80;;;;;;5091586;28;20039;-61
2021/10/06 11:47:42;;;;;;;0.77;0.77;;;17.10;84.70;;;;;;5090517;28;20077;-61
2021/10/06 11:50:08;;;;;;;1.67;1.00;;;17.10;84.70;;;;;;5091344;28;20048;-62
2021/10/06 11:52:33;;;;;;;2.00;1.00;;;17.10;82.50;;;;;;5091880;28;20048;-58
2021/10/06 11:54:59;;;;;;;1.23;1.10;;;17.00;80.50;;;;;;5090927;28;20047;-59
2021/10/06 11:57:25;;;;;;;0.82;0.70;;;17.00;78.70;;;;;;5091693;28;20396;-58
2021/10/06 11:59:52;;;;;;;2.13;0.80;;;16.90;77.60;;;;;;5091804;28;20097;-58
2021/10/06 12:02:19;;;;;;;1.88;1.15;;;16.90;77.10;;;;;;5091346;28;20059;-58
2021/10/06 12:04:51;;;;;;;3.67;1.08;;;16.80;77.00;;;;;;5091485;28;20044;-60
2021/10/06 12:07:19;;;;;;;2.55;1.48;;;16.80;77.00;;;;;;5091203;28;20044;-57
2021/10/06 12:09:48;;;;;;;11.13;2.50;;;16.70;77.00;;;;;;5091017;28;20075;-60
2021/10/06 12:12:23;;;;;;;12.55;2.40;;;16.70;77.20;;;;;;5091187;28;20109;-60
2021/10/06 12:14:50;;;;;;;11.37;2.80;;;16.70;78.10;;;;;;5091494;28;20044;-56
2021/10/06 12:17:24;;;;;;;19.27;2.65;;;16.70;78.60;;;;;;5090894;28;20510;-65
2021/10/06 12:20:00;;;;;;;10.15;2.47;;;16.70;79.10;;;;;;5091289;28;20051;-58
2021/10/06 12:22:43;;;;;;;12.52;2.80;;;16.70;79.30;;;;;;5090903;28;20040;-60
2021/10/06 12:25:10;;;;;;;12.63;2.13;;;16.80;79.60;;;;;;5090011;28;20145;-60
2021/10/06 12:27:38;;;;;;;8.23;2.55;;;16.80;79.80;;;;;;5090426;28;20044;-59
2021/10/06 12:30:09;;;;;;;9.98;2.17;;;16.80;80.00;;;;;;5089310;28;20063;-57
2021/10/06 12:32:35;;;;;;;8.70;1.60;;;16.80;80.20;;;;;;5090666;28;20048;-65
2021/10/06 12:35:13;;;;;;;15.07;2.25;;;16.80;80.30;;;;;;5090857;28;20059;-58
2021/10/06 12:37:52;;;;;;;10.52;1.92;;;16.90;80.50;;;;;;5088984;28;20127;-61
2021/10/06 12:40:50;;;;;;;8.05;1.63;;;16.90;80.60;;;;;;5103090;28;20193;-63
2021/10/06 12:43:18;;;;;;;9.73;1.77;;;16.90;80.70;;;;;;5068886;28;20109;-60
2021/10/06 12:46:04;;;;;;;7.40;2.03;;;16.90;80.60;;;;;;5070196;28;20040;-64
2021/10/06 12:48:38;;;;;;;7.03;1.85;;;16.90;80.70;;;;;;5073206;28;20055;-62